AirNav   Air Wisconsin pilot careers
 
 313 users online  

1F2 Plateau Sky Ranch Airport
Edinburg, New York, USA

GOING TO EDINBURG?


FAA INFORMATION EFFECTIVE 01 FEBRUARY 2018

Location

FAA Identifier: 1F2
Lat/Long: 43-13-32.1000N / 074-06-53.6000W
43-13.535000N / 074-06.893333W
43.2255833 / -74.1148889
(estimated)
Elevation: 1070 ft. / 326.1 m (surveyed)
Variation: 14W (1985)
From city: 1 mile NW of EDINBURG, NY
Time zone: UTC -5 (UTC -4 during Daylight Saving Time)
Zip code: 12134

Airport Operations

Airport use: Open to the public
Control tower: no
ARTCC: BOSTON CENTER
FSS: BURLINGTON FLIGHT SERVICE STATION
NOTAMs facility: BTV (NOTAM-D service available)
Attendance: UNATNDD
Wind indicator: yes
Segmented circle: yes

Airport Communications

CTAF/UNICOM: 122.8
WX AWOS-3 at 5B2 (15 nm SE): 132.025 (518-884-9289)
WX AWOS-3 at NY0 (17 nm SW): 119.225 (518-762-0322)

Nearby radio navigation aids

VOR radial/distance  VOR name  Freq  Var
GFLr266/23.1GLENS FALLS VORTAC110.2014W
ALBr348/31.8ALBANY VORTAC115.3013W
CAMr306/36.5CAMBRIDGE VOR/DME115.0014W

 
NDB name  Hdg/Dist  Freq  Var  ID
JOHNSTOWN049/16.652314WJJH .--- .--- ....
HUNTER354/23.735614WHEU .... . ..-

Airport Services

Parking: tiedowns
Airframe service: NONE
Powerplant service: NONE

Runway Information

Runway 6/24

Dimensions: 2400 x 100 ft. / 732 x 30 m
RWY WIDTH EDGE MARKED WITH RED CONES ALL SEASONS EXCEPT WINTER
Surface: turf, in good condition
RUNWAY 6  RUNWAY 24
Traffic pattern: leftleft
Obstructions: 15 ft. road
ROAD ON BOTH SIDES OF CTRLN AT AN ANGLE TO RY 06.
15 ft. road
ROAD ON BOTH SIDES OF CTRLN RY 24.

Runway 1/19

Dimensions: 2000 x 100 ft. / 610 x 30 m
RWY WIDTH EDGE MARKED WITH RED CONES ALL SEASONS EXCEPT WINTER
Surface: turf, in good condition
RUNWAY 1  RUNWAY 19
Latitude: 43-13.370213N43-13.699498N
Longitude: 074-06.896147W074-06.890705W
Elevation: 1048.0 ft.1067.0 ft.
Gradient: 1.0% UP
Traffic pattern: leftleft
Runway heading: 015 magnetic, 001 true195 magnetic, 181 true
Obstructions: 10 ft. road
ROAD ON BOTH SIDES OF CTRLN RY 01.
15 ft. road
ROAD ON BOTH SIDES OF CTRLN AT AN ANGLE TO RY 19.

Airport Ownership and Management from official FAA records

Ownership: Privately-owned
Owner: MR BRUCE R BROWNELL
98 NORTHVILLE ROAD
EDINBURG, NY 12134
Phone (518) 863-4338
Manager: MR BRUCE R BROWNELL
98 NORTHVILLE ROAD
EDINBURG, NY 12134
Phone (518) 863-4338

Airport Operational Statistics

Aircraft based on the field: 9
Single engine airplanes: 8
Ultralights: 1
    
Aircraft operations: avg 61/week *
78% local general aviation
19% transient general aviation
3% military
* for 12-month period ending 13 September 2016

Additional Remarks

ULTRALGT ACFT ON & INVOF ARPT.
TRAP & SKEET SHOOTING BTN RYS 1 & 6.
ACFT PARKED/HANGARED ON NON ARPT LAND. CROSS PUBLIC ROAD TO/FM ARPT.
RWY 24; +35 - 50 FT TREES, 90 - 250 FT FROM THLD, 0 - 125 FT R OF CNTRLN AND +50 FT TREES, 350 - 425 FT FROM THLD 110 - 150 FT L OF CNTRLN.
RWY 19; +17 - 52 FT TREES, 0 - 230 FT FROM THLD, 50 - 100 FT R OF CNTRLN.
RWY 1; +30 - 60 FT TREES, 0 - 240 FROM THLD, 15 - 100 FT L AND R OF CNTRLN.
RWY 6; +20 - 65 FT TREES, 0 - 500 FT FROM THLD, 30 - 150 L AND R OF CNTRLN.

Instrument Procedures

There are no published instrument procedures at 1F2.

Some nearby airports with instrument procedures:

5B2 - Saratoga County Airport (15 nm SE)
NY0 - Fulton County Airport (17 nm SW)
K09 - Piseco Airport (22 nm NW)
KGFL - Floyd Bennett Memorial Airport (23 nm E)
KSCH - Schenectady County Airport (24 nm S)
 
Loc | Ops | Rwys | IFR | FBO | Links
Com | Nav | Svcs | Stats | Notes

AirNav Hotels Sweepstakes
 
Area around 1F2 (Plateau Sky Ranch Airport)
 
Road maps at: MapQuest Bing Google
 
Aerial photo
WARNING: Photo may not be current or correct
Aerial photo of 1F2 (Plateau Sky Ranch Airport)
Photo taken 08-Jul-2006

Do you have a better or more recent aerial photo of Plateau Sky Ranch Airport that you would like to share? If so, please send us your photo.

 
Sectional chart

 
Airport distance calculator
Flying to Plateau Sky Ranch Airport? Find the distance to fly.

From to 1F2

Sunrise and sunset
Times for 18-Feb-2018
 Local
(UTC-5)
 Zulu
(UTC)
Morning civil twilight06:2211:22
Sunrise06:5111:51
Sunset17:3022:30
Evening civil twilight17:5922:59

Current date and time
Zulu (UTC)  18-Feb-2018 09:24:52
Local (UTC-5)  18-Feb-2018 04:24:52
 
METAR
KNY0 
17nm SW 
180854Z AUTO 28005KT 1 1/2SM OVC024 M03/M03 A2995 RMK AO2 P0001
KGFL 
23nm E 
180857Z AUTO 17003KT 3SM -SN BR BKN006 BKN011 OVC046 M02/M03 A2996 RMK AO2 P0000 T10221028
KSCH 
24nm S 
180145Z AUTO 18010KT 7SM OVC010 M01/M03 A3010 RMK LAST
KALB 
32nm SE 
180851Z 24003KT 2SM -SN BR FEW004 SCT017 OVC031 M01/M03 A2998 RMK AO2 SFC VIS 2 1/2 SLP155 VIS 2V3 P0001 60004 T10111028 53003 $
TAF
KGFL 
23nm E 
180757Z 1808/1906 00000KT 3SM -SN BR SCT008 OVC040 TEMPO 1808/1810 4SM -SN BR OVC035 FM181000 23004KT 4SM -SN BKN045 FM181100 25004KT P6SM BKN080 FM181200 26005KT P6SM SCT090 FM181600 28009KT P6SM SCT040 FM182200 25006KT P6SM FEW250
NOTAMs
Click for the latest NOTAMs
NOTAMs are issued by the DoD/FAA and will open in a separate window not controlled by AirNav.

 

 
 

Would you like to see your business listed on this page?

 If your business provides an interesting product or service to pilots, flight crews, aircraft, or users of the Plateau Sky Ranch Airport, you should consider listing it here.  To start the listing process, click on the button below
 
Add a business
 

Other Pages about Plateau Sky Ranch Airport

Update a link
 
Copyright © AirNav, LLC. All rights reserved. Privacy Policy  Contact